createdAt,value
2018-06-14T00:00:44.446Z,22.07
2018-06-14T00:01:44.416Z,22.10
2018-06-14T00:02:44.375Z,22.02
2018-06-14T00:03:44.317Z,21.98
2018-06-14T00:04:44.258Z,22.04
2018-06-14T00:05:44.231Z,21.98
2018-06-14T00:06:44.193Z,22.07
2018-06-14T00:07:44.144Z,22.06
2018-06-14T00:08:44.075Z,22.07
2018-06-14T00:09:44.037Z,22.10
2018-06-14T00:10:44.001Z,22.02
2018-06-14T00:11:43.970Z,21.96
2018-06-14T00:12:43.913Z,21.98
2018-06-14T00:13:43.884Z,21.92
2018-06-14T00:14:43.836Z,21.91
2018-06-14T00:15:43.780Z,21.96
2018-06-14T00:16:43.719Z,21.93
2018-06-14T00:17:43.683Z,21.96
2018-06-14T00:18:43.659Z,21.89
2018-06-14T00:19:43.605Z,21.89
2018-06-14T00:20:43.542Z,21.77
2018-06-14T00:21:43.526Z,21.58
2018-06-14T00:22:43.466Z,21.58
2018-06-14T00:23:43.434Z,21.73
2018-06-14T00:24:43.361Z,21.77
2018-06-14T00:25:43.334Z,21.80
2018-06-14T00:26:43.293Z,21.76
2018-06-14T00:27:43.228Z,21.76
2018-06-14T00:28:43.209Z,21.76
2018-06-14T00:29:43.169Z,21.73
2018-06-14T00:30:43.094Z,21.79
2018-06-14T00:31:43.059Z,21.61
2018-06-14T00:32:43.015Z,21.61
2018-06-14T00:33:42.965Z,21.61
2018-06-14T00:34:42.934Z,21.64
2018-06-14T00:35:42.911Z,21.55
2018-06-14T00:36:42.850Z,21.58
2018-06-14T00:37:42.778Z,21.57
2018-06-14T00:38:42.768Z,21.62
2018-06-14T00:39:42.705Z,21.62
2018-06-14T00:40:42.655Z,21.45
2018-06-14T00:41:42.629Z,21.48
2018-06-14T00:42:42.566Z,21.62
2018-06-14T00:43:42.510Z,21.58
2018-06-14T00:44:42.480Z,21.61
2018-06-14T00:45:42.420Z,21.62
2018-06-14T00:46:42.418Z,21.66
2018-06-14T00:47:42.352Z,21.61
2018-06-14T00:48:42.334Z,21.54
2018-06-14T00:49:42.281Z,21.57
2018-06-14T00:50:42.203Z,21.61
2018-06-14T00:51:42.174Z,21.52
2018-06-14T00:52:42.120Z,21.61
2018-06-14T00:53:42.066Z,21.55
2018-06-14T00:54:42.042Z,21.50
2018-06-14T00:55:41.984Z,21.52
2018-06-14T00:56:41.934Z,21.51
2018-06-14T00:57:41.906Z,21.50
2018-06-14T00:58:41.850Z,21.54
2018-06-14T00:59:41.788Z,21.48
2018-06-14T01:00:41.772Z,21.43
2018-06-14T01:01:41.705Z,21.48
2018-06-14T01:02:41.682Z,21.35
2018-06-14T01:03:41.614Z,21.12
2018-06-14T01:04:41.589Z,21.09
2018-06-14T01:05:41.523Z,21.09
2018-06-14T01:06:41.482Z,21.03
2018-06-14T01:07:41.460Z,21.07
2018-06-14T01:08:41.411Z,20.97
2018-06-14T01:09:41.382Z,21.03
2018-06-14T01:10:41.308Z,21.09
2018-06-14T01:11:41.258Z,21.15
2018-06-14T01:12:41.216Z,21.09
2018-06-14T01:13:41.189Z,21.14
2018-06-14T01:14:41.137Z,21.07
2018-06-14T01:15:41.085Z,21.06
2018-06-14T01:16:41.026Z,21.09
2018-06-14T01:17:40.994Z,21.06
2018-06-14T01:18:40.950Z,21.09
2018-06-14T01:19:40.933Z,21.05
2018-06-14T01:20:40.897Z,21.12
2018-06-14T01:21:40.839Z,21.20
2018-06-14T01:22:40.752Z,21.11
2018-06-14T01:23:40.723Z,21.12
2018-06-14T01:24:40.689Z,21.11
2018-06-14T01:25:40.663Z,21.15
2018-06-14T01:26:40.600Z,21.07
2018-06-14T01:27:40.562Z,20.99
2018-06-14T01:28:40.502Z,21.02
2018-06-14T01:29:40.462Z,20.97
2018-06-14T01:30:40.407Z,20.95
2018-06-14T01:31:40.389Z,20.96
2018-06-14T01:32:40.315Z,20.99
2018-06-14T01:33:40.285Z,21.07
2018-06-14T01:34:40.227Z,20.96
2018-06-14T01:35:40.196Z,20.69
2018-06-14T01:36:40.145Z,20.77
2018-06-14T01:37:40.088Z,20.78
2018-06-14T01:38:40.045Z,20.75
2018-06-14T01:39:39.999Z,20.74
2018-06-14T01:40:39.968Z,20.70
2018-06-14T01:41:39.977Z,20.77
2018-06-14T01:42:39.865Z,20.81
2018-06-14T01:43:39.818Z,20.41
2018-06-14T01:44:39.773Z,20.41
2018-06-14T01:45:39.714Z,20.34
2018-06-14T01:46:39.685Z,20.44
2018-06-14T01:47:39.641Z,20.52
2018-06-14T01:48:39.609Z,20.60
2018-06-14T01:49:39.561Z,20.56
2018-06-14T01:50:39.489Z,20.47
2018-06-14T01:51:39.458Z,20.58
2018-06-14T01:52:39.408Z,20.63
2018-06-14T01:53:39.367Z,20.60
2018-06-14T01:54:39.323Z,20.58
2018-06-14T01:55:39.267Z,20.51
2018-06-14T01:56:39.231Z,20.44
2018-06-14T01:57:39.191Z,20.43
2018-06-14T01:58:39.127Z,20.51
2018-06-14T01:59:39.107Z,20.56
2018-06-14T02:00:39.066Z,20.65
2018-06-14T02:01:39.017Z,20.78
2018-06-14T02:02:38.973Z,20.85
2018-06-14T02:03:38.920Z,20.75
2018-06-14T02:04:38.894Z,20.72
2018-06-14T02:05:38.842Z,20.78
2018-06-14T02:06:38.783Z,20.66
2018-06-14T02:07:38.717Z,20.72
2018-06-14T02:08:38.716Z,20.72
2018-06-14T02:09:38.649Z,20.72
2018-06-14T02:10:38.590Z,20.75
2018-06-14T02:11:38.536Z,20.81
2018-06-14T02:12:38.520Z,20.69
2018-06-14T02:13:38.470Z,20.72
2018-06-14T02:14:38.442Z,20.70
2018-06-14T02:15:38.385Z,20.62
2018-06-14T02:16:38.336Z,20.65
2018-06-14T02:17:38.289Z,20.47
2018-06-14T02:18:38.233Z,20.56
2018-06-14T02:19:38.203Z,20.56
2018-06-14T02:20:38.137Z,20.55
2018-06-14T02:21:38.098Z,20.58
2018-06-14T02:22:38.067Z,20.59
2018-06-14T02:23:37.993Z,20.66
2018-06-14T02:24:37.962Z,20.59
2018-06-14T02:25:37.963Z,20.44
2018-06-14T02:26:37.898Z,20.56
2018-06-14T02:27:37.825Z,20.56
2018-06-14T02:28:37.789Z,20.47
2018-06-14T02:29:37.754Z,20.52
2018-06-14T02:30:37.704Z,20.41
2018-06-14T02:31:37.631Z,20.36
2018-06-14T02:32:37.600Z,20.36
2018-06-14T02:33:37.560Z,20.50
2018-06-14T02:34:37.546Z,20.44
2018-06-14T02:35:37.488Z,20.40
2018-06-14T02:36:37.416Z,20.29
2018-06-14T02:37:37.381Z,20.47
2018-06-14T02:38:37.353Z,20.41
2018-06-14T02:39:37.302Z,20.31
2018-06-14T02:40:37.249Z,20.36
2018-06-14T02:41:37.204Z,20.32
2018-06-14T02:42:37.171Z,20.37
2018-06-14T02:43:37.098Z,20.48
2018-06-14T02:44:37.052Z,20.51
2018-06-14T02:45:37.008Z,20.52
2018-06-14T02:46:36.975Z,20.60
2018-06-14T02:47:36.917Z,20.48
2018-06-14T02:48:36.859Z,20.59
2018-06-14T02:49:36.808Z,20.55
2018-06-14T02:50:36.782Z,20.58
2018-06-14T02:51:36.753Z,20.58
2018-06-14T02:52:36.692Z,20.51
2018-06-14T02:53:36.641Z,20.44
2018-06-14T02:54:36.596Z,20.50
2018-06-14T02:55:36.578Z,20.51
2018-06-14T02:56:36.535Z,20.51
2018-06-14T02:57:36.472Z,20.48
2018-06-14T02:58:36.435Z,20.47
2018-06-14T02:59:36.359Z,20.41
2018-06-14T03:00:36.344Z,20.40
2018-06-14T03:01:36.283Z,20.48
2018-06-14T03:02:36.224Z,20.55
2018-06-14T03:03:36.195Z,20.43
2018-06-14T03:04:36.169Z,20.43
2018-06-14T03:05:36.114Z,20.47
2018-06-14T03:06:36.083Z,20.51
2018-06-14T03:07:36.021Z,20.50
2018-06-14T03:08:35.987Z,20.31
2018-06-14T03:09:35.919Z,20.43
2018-06-14T03:10:35.885Z,20.39
2018-06-14T03:11:35.861Z,20.34
2018-06-14T03:12:35.769Z,20.37
2018-06-14T03:13:35.732Z,20.47
2018-06-14T03:14:35.677Z,20.44
2018-06-14T03:15:35.652Z,20.43
2018-06-14T03:16:35.610Z,20.44
2018-06-14T03:17:35.573Z,20.44
2018-06-14T03:18:35.509Z,20.37
2018-06-14T03:19:35.466Z,20.37
2018-06-14T03:20:35.428Z,20.24
2018-06-14T03:21:35.390Z,20.21
2018-06-14T03:22:35.323Z,20.32
2018-06-14T03:23:35.285Z,20.36
2018-06-14T03:24:35.226Z,20.34
2018-06-14T03:25:35.206Z,20.31
2018-06-14T03:26:35.142Z,20.16
2018-06-14T03:27:35.102Z,20.00
2018-06-14T03:28:35.077Z,20.09
2018-06-14T03:29:35.013Z,20.02
2018-06-14T03:30:35.003Z,19.94
2018-06-14T03:31:34.929Z,19.99
2018-06-14T03:32:34.866Z,20.13
2018-06-14T03:33:34.836Z,20.11
2018-06-14T03:34:34.769Z,20.04
2018-06-14T03:35:34.752Z,20.06
2018-06-14T03:36:34.700Z,20.04
2018-06-14T03:37:34.670Z,19.95
2018-06-14T03:38:34.634Z,20.11
2018-06-14T03:39:34.552Z,20.03
2018-06-14T03:40:34.510Z,19.96
2018-06-14T03:41:34.481Z,20.00
2018-06-14T03:42:34.437Z,20.10
2018-06-14T03:43:34.368Z,20.11
2018-06-14T03:44:34.317Z,20.18
2018-06-14T03:45:34.291Z,20.09
2018-06-14T03:46:34.282Z,20.09
2018-06-14T03:47:34.176Z,20.13
2018-06-14T03:48:34.148Z,20.14
2018-06-14T03:49:34.081Z,20.14
2018-06-14T03:50:34.054Z,20.19
2018-06-14T03:51:34.022Z,20.18
2018-06-14T03:52:33.981Z,20.25
2018-06-14T03:53:33.918Z,20.22
2018-06-14T03:54:33.869Z,20.25
2018-06-14T03:55:33.842Z,20.29
2018-06-14T03:56:33.796Z,20.22
2018-06-14T03:57:33.753Z,20.18
2018-06-14T03:58:33.704Z,20.18
2018-06-14T03:59:33.674Z,20.07
2018-06-14T04:00:33.627Z,20.03
2018-06-14T04:01:34.071Z,20.03
2018-06-14T04:02:33.536Z,20.02
2018-06-14T04:03:33.462Z,20.02
2018-06-14T04:04:33.413Z,19.88
2018-06-14T04:05:33.373Z,19.95
2018-06-14T04:06:33.322Z,19.88
2018-06-14T04:07:33.294Z,19.94
2018-06-14T04:08:33.232Z,19.85
2018-06-14T04:09:33.206Z,19.66
2018-06-14T04:10:33.176Z,19.47
2018-06-14T04:11:33.085Z,19.54
2018-06-14T04:12:33.068Z,19.37
2018-06-14T04:13:32.997Z,19.34
2018-06-14T04:14:32.966Z,19.34
2018-06-14T04:15:32.918Z,19.51
2018-06-14T04:16:32.890Z,19.52
2018-06-14T04:17:32.848Z,19.54
2018-06-14T04:18:32.794Z,19.55
2018-06-14T04:19:32.746Z,19.64
2018-06-14T04:20:32.755Z,19.56
2018-06-14T04:21:32.639Z,19.59
2018-06-14T04:22:32.610Z,19.64
2018-06-14T04:23:32.551Z,19.66
2018-06-14T04:24:32.531Z,19.64
2018-06-14T04:25:32.461Z,19.76
2018-06-14T04:26:32.413Z,19.76
2018-06-14T04:27:32.467Z,19.81
2018-06-14T04:28:32.333Z,19.79
2018-06-14T04:29:32.271Z,19.84
2018-06-14T04:30:32.225Z,19.67
2018-06-14T04:31:32.198Z,19.69
2018-06-14T04:32:32.168Z,19.81
2018-06-14T04:33:32.106Z,19.63
2018-06-14T04:34:32.063Z,19.66
2018-06-14T04:35:32.000Z,19.71
2018-06-14T04:36:31.984Z,19.55
2018-06-14T04:37:31.909Z,19.39
2018-06-14T04:38:31.888Z,19.30
2018-06-14T04:39:31.819Z,19.31
2018-06-14T04:40:31.789Z,19.22
2018-06-14T04:41:31.757Z,19.29
2018-06-14T04:42:31.676Z,19.31
2018-06-14T04:43:31.662Z,19.18
2018-06-14T04:44:31.604Z,19.12
2018-06-14T04:45:31.546Z,19.12
2018-06-14T04:46:31.486Z,19.14
2018-06-14T04:47:31.453Z,19.19
2018-06-14T04:48:31.419Z,19.21
2018-06-14T04:49:31.359Z,19.27
2018-06-14T04:50:31.327Z,19.22
2018-06-14T04:51:31.297Z,19.18
2018-06-14T04:52:31.236Z,19.24
2018-06-14T04:53:31.227Z,19.29
2018-06-14T04:54:31.134Z,19.34
2018-06-14T04:55:31.111Z,19.26
2018-06-14T04:56:31.045Z,19.30
2018-06-14T04:57:31.008Z,19.34
2018-06-14T04:58:30.960Z,19.37
2018-06-14T04:59:30.900Z,19.48
2018-06-14T05:00:30.868Z,19.29
2018-06-14T05:01:30.834Z,19.30
2018-06-14T05:02:30.838Z,19.29
2018-06-14T05:03:30.746Z,19.30
2018-06-14T05:04:30.671Z,19.33
2018-06-14T05:05:30.653Z,19.44
2018-06-14T05:06:30.590Z,19.41
2018-06-14T05:07:30.555Z,19.33
2018-06-14T05:08:30.497Z,19.19
2018-06-14T05:09:30.444Z,19.18
2018-06-14T05:10:30.413Z,19.24
2018-06-14T05:11:30.372Z,19.30
2018-06-14T05:12:30.307Z,19.26
2018-06-14T05:13:30.245Z,19.11
2018-06-14T05:14:30.245Z,19.21
2018-06-14T05:15:30.194Z,19.21
2018-06-14T05:16:30.149Z,19.29
2018-06-14T05:17:30.078Z,19.22
2018-06-14T05:18:30.044Z,19.11
2018-06-14T05:19:29.994Z,19.08
2018-06-14T05:20:29.965Z,19.14
2018-06-14T05:21:29.893Z,19.12
2018-06-14T05:22:29.859Z,19.16
2018-06-14T05:23:29.815Z,19.18
2018-06-14T05:24:29.747Z,19.24
2018-06-14T05:25:29.722Z,19.19
2018-06-14T05:26:29.680Z,19.21
2018-06-14T05:27:29.603Z,19.36
2018-06-14T05:28:29.559Z,19.34
2018-06-14T05:29:29.527Z,19.33
2018-06-14T05:30:29.477Z,19.19
2018-06-14T05:31:29.441Z,19.12
2018-06-14T05:32:29.919Z,19.11
2018-06-14T05:33:29.367Z,19.07
2018-06-14T05:34:29.284Z,18.93
2018-06-14T05:35:29.290Z,18.96
2018-06-14T05:36:29.211Z,18.81
2018-06-14T05:37:29.171Z,18.92
2018-06-14T05:38:29.117Z,18.84
2018-06-14T05:39:29.068Z,18.81
2018-06-14T05:40:29.021Z,18.75
2018-06-14T05:41:28.958Z,18.83
2018-06-14T05:42:28.974Z,18.86
2018-06-14T05:43:28.876Z,18.89
2018-06-14T05:44:28.837Z,18.96
2018-06-14T05:45:28.793Z,19.09
2018-06-14T05:46:28.746Z,18.95
2018-06-14T05:47:28.706Z,19.07
2018-06-14T05:48:28.661Z,19.09
2018-06-14T05:49:28.611Z,19.00
2018-06-14T05:50:28.565Z,18.95
2018-06-14T05:51:28.523Z,19.08
2018-06-14T05:52:28.468Z,19.00
2018-06-14T05:53:28.434Z,18.92
2018-06-14T05:54:28.363Z,18.92
2018-06-14T05:55:28.330Z,18.89
2018-06-14T05:56:28.270Z,18.83
2018-06-14T05:57:28.232Z,18.84
2018-06-14T05:58:28.203Z,18.89
2018-06-14T05:59:28.173Z,18.99
2018-06-14T06:00:28.086Z,18.93
2018-06-14T06:01:28.041Z,18.98
2018-06-14T06:02:28.033Z,19.09
2018-06-14T06:03:27.980Z,19.11
2018-06-14T06:04:27.942Z,19.02
2018-06-14T06:05:27.898Z,19.09
2018-06-14T06:06:27.836Z,18.89
2018-06-14T06:07:27.792Z,18.81
2018-06-14T06:08:27.730Z,18.83
2018-06-14T06:09:27.698Z,18.80
2018-06-14T06:10:27.640Z,18.80
2018-06-14T06:11:27.602Z,18.73
2018-06-14T06:12:27.555Z,18.83
2018-06-14T06:13:27.499Z,18.83
2018-06-14T06:14:27.468Z,18.81
2018-06-14T06:15:27.424Z,18.92
2018-06-14T06:16:27.382Z,18.93
2018-06-14T06:17:27.312Z,18.86
2018-06-14T06:18:27.269Z,18.83
2018-06-14T06:19:27.249Z,18.90
2018-06-14T06:20:27.173Z,18.98
2018-06-14T06:21:27.127Z,18.92
2018-06-14T06:22:27.107Z,18.99
2018-06-14T06:23:27.049Z,18.93
2018-06-14T06:24:26.999Z,18.98
2018-06-14T06:25:26.968Z,18.92
2018-06-14T06:26:27.119Z,18.98
2018-06-14T06:27:26.874Z,18.98
2018-06-14T06:28:26.823Z,18.90
2018-06-14T06:29:26.773Z,18.95
2018-06-14T06:30:26.707Z,18.90
2018-06-14T06:31:26.704Z,18.88
2018-06-14T06:32:26.626Z,18.89
2018-06-14T06:33:26.657Z,18.70
2018-06-14T06:34:26.550Z,18.75
2018-06-14T06:35:26.496Z,18.75
2018-06-14T06:36:26.429Z,18.70
2018-06-14T06:37:26.394Z,18.62
2018-06-14T06:38:26.389Z,18.73
2018-06-14T06:39:26.309Z,18.75
2018-06-14T06:40:26.252Z,18.77
2018-06-14T06:41:26.213Z,18.83
2018-06-14T06:42:26.182Z,18.88
2018-06-14T06:43:26.142Z,18.75
2018-06-14T06:44:26.072Z,18.73
2018-06-14T06:45:26.026Z,18.68
2018-06-14T06:46:25.983Z,18.81
2018-06-14T06:47:25.936Z,18.78
2018-06-14T06:48:25.891Z,18.86
2018-06-14T06:49:25.831Z,18.75
2018-06-14T06:50:25.792Z,18.70
2018-06-14T06:51:25.765Z,18.70
2018-06-14T06:52:25.706Z,18.62
2018-06-14T06:53:25.703Z,18.62
2018-06-14T06:54:25.597Z,18.59
2018-06-14T06:55:25.601Z,18.53
2018-06-14T06:56:25.509Z,18.43
2018-06-14T06:57:25.502Z,18.49
2018-06-14T06:58:25.427Z,18.62
2018-06-14T06:59:25.369Z,18.63
2018-06-14T07:00:25.359Z,18.66
2018-06-14T07:01:25.280Z,18.71
2018-06-14T07:02:25.274Z,18.71
2018-06-14T07:03:25.206Z,18.70
2018-06-14T07:04:25.159Z,18.80
2018-06-14T07:05:25.103Z,18.70
2018-06-14T07:06:25.112Z,18.68
2018-06-14T07:07:25.015Z,18.63
2018-06-14T07:08:24.966Z,18.65
2018-06-14T07:09:24.922Z,18.59
2018-06-14T07:10:24.915Z,18.59
2018-06-14T07:11:24.820Z,18.68
2018-06-14T07:12:24.795Z,18.75
2018-06-14T07:13:24.740Z,18.78
2018-06-14T07:14:24.707Z,18.70
2018-06-14T07:15:24.684Z,18.89
2018-06-14T07:16:24.604Z,18.83
2018-06-14T07:17:24.580Z,18.80
2018-06-14T07:18:24.503Z,18.78
2018-06-14T07:19:24.501Z,18.68
2018-06-14T07:20:24.429Z,18.59
2018-06-14T07:21:24.409Z,18.52
2018-06-14T07:22:24.325Z,18.43
2018-06-14T07:23:24.287Z,18.44
2018-06-14T07:24:24.250Z,18.45
2018-06-14T07:25:24.197Z,18.50
2018-06-14T07:26:24.692Z,18.53
2018-06-14T07:27:24.110Z,18.65
2018-06-14T07:28:24.045Z,18.58
2018-06-14T07:29:24.001Z,18.56
2018-06-14T07:30:23.977Z,18.56
2018-06-14T07:31:23.909Z,18.55
2018-06-14T07:32:23.895Z,18.40
2018-06-14T07:33:23.817Z,18.29
2018-06-14T07:34:23.777Z,18.38
2018-06-14T07:35:23.757Z,18.29
2018-06-14T07:36:23.663Z,18.26
2018-06-14T07:37:23.644Z,18.20
2018-06-14T07:38:23.582Z,18.19
2018-06-14T07:39:23.527Z,18.16
2018-06-14T07:40:24.007Z,18.15
2018-06-14T07:41:23.447Z,18.10
2018-06-14T07:42:23.400Z,18.20
2018-06-14T07:43:23.341Z,18.07
2018-06-14T07:44:23.339Z,17.95
2018-06-14T07:45:23.264Z,18.15
2018-06-14T07:46:23.223Z,18.15
2018-06-14T07:47:23.205Z,18.11
2018-06-14T07:48:23.113Z,17.98
2018-06-14T07:49:23.086Z,18.15
2018-06-14T07:50:23.034Z,18.15
2018-06-14T07:51:22.963Z,18.16
2018-06-14T07:52:22.930Z,18.19
2018-06-14T07:53:22.902Z,18.13
2018-06-14T07:54:22.845Z,18.23
2018-06-14T07:55:22.882Z,18.23
2018-06-14T07:56:22.761Z,18.25
2018-06-14T07:57:22.742Z,18.18
2018-06-14T07:58:22.675Z,18.31
2018-06-14T07:59:22.628Z,18.25
2018-06-14T08:00:22.566Z,18.41
2018-06-14T08:01:22.543Z,18.37
2018-06-14T08:02:22.459Z,18.28
2018-06-14T08:03:22.408Z,18.31
2018-06-14T08:04:22.378Z,18.28
2018-06-14T08:05:22.360Z,18.25
2018-06-14T08:06:22.296Z,18.15
2018-06-14T08:07:22.240Z,18.04
2018-06-14T08:08:22.182Z,18.11
2018-06-14T08:09:22.174Z,18.11
2018-06-14T08:10:22.649Z,18.16
2018-06-14T08:11:22.069Z,18.13
2018-06-14T08:12:22.117Z,18.07
2018-06-14T08:13:21.987Z,18.07
2018-06-14T08:14:21.917Z,17.98
2018-06-14T08:15:21.888Z,18.07
2018-06-14T08:16:21.837Z,18.04
2018-06-14T08:17:21.765Z,18.00
2018-06-14T08:18:21.744Z,18.00
2018-06-14T08:19:21.705Z,18.01
2018-06-14T08:20:21.644Z,17.83
2018-06-14T08:21:21.619Z,17.85
2018-06-14T08:22:21.559Z,17.82
2018-06-14T08:23:21.513Z,17.67
2018-06-14T08:24:21.454Z,17.72
2018-06-14T08:25:21.399Z,17.72
2018-06-14T08:26:21.347Z,17.68
2018-06-14T08:27:21.324Z,17.70
2018-06-14T08:28:21.250Z,17.63
2018-06-14T08:29:21.237Z,17.57
2018-06-14T08:30:21.160Z,17.64
2018-06-14T08:31:21.128Z,17.49
2018-06-14T08:32:21.098Z,17.57
2018-06-14T08:33:21.063Z,17.46
2018-06-14T08:34:21.002Z,17.60
2018-06-14T08:35:20.941Z,17.59
2018-06-14T08:36:20.916Z,17.49
2018-06-14T08:37:20.866Z,17.54
2018-06-14T08:38:20.805Z,17.63
2018-06-14T08:39:20.780Z,17.57
2018-06-14T08:40:20.707Z,17.49
2018-06-14T08:41:20.670Z,17.57
2018-06-14T08:42:20.600Z,17.49
2018-06-14T08:43:20.565Z,17.51
2018-06-14T08:44:20.547Z,17.54
2018-06-14T08:45:20.469Z,17.52
2018-06-14T08:46:20.459Z,17.49
2018-06-14T08:47:20.409Z,17.56
2018-06-14T08:48:20.346Z,17.59
2018-06-14T08:49:20.314Z,17.42
2018-06-14T08:50:20.765Z,17.49
2018-06-14T08:51:20.179Z,17.51
2018-06-14T08:52:20.155Z,17.64
2018-06-14T08:53:20.639Z,17.42
2018-06-14T08:54:20.066Z,17.59
2018-06-14T08:55:20.031Z,17.63
2018-06-14T08:56:19.962Z,17.67
2018-06-14T08:57:19.920Z,17.71
2018-06-14T08:58:19.864Z,17.72
2018-06-14T08:59:19.848Z,17.79
2018-06-14T09:00:19.792Z,17.72
2018-06-14T09:01:19.736Z,17.78
2018-06-14T09:02:19.689Z,17.79
2018-06-14T09:03:19.650Z,17.79
2018-06-14T09:04:19.587Z,17.78
2018-06-14T09:05:19.561Z,17.70
2018-06-14T09:06:19.497Z,17.92
2018-06-14T09:07:19.437Z,17.68
2018-06-14T09:08:19.415Z,17.68
2018-06-14T09:09:19.368Z,17.64
2018-06-14T09:10:19.343Z,17.79
2018-06-14T09:11:19.279Z,17.68
2018-06-14T09:12:19.216Z,17.65
2018-06-14T09:13:19.193Z,17.72
2018-06-14T09:14:19.224Z,17.68
2018-06-14T09:15:19.074Z,17.65
2018-06-14T09:16:19.041Z,17.64
2018-06-14T09:17:18.982Z,17.64
2018-06-14T09:18:18.948Z,17.67
2018-06-14T09:19:18.894Z,17.60
2018-06-14T09:20:18.851Z,17.60
2018-06-14T09:21:18.796Z,17.52
2018-06-14T09:22:18.735Z,17.57
2018-06-14T09:23:18.710Z,17.60
2018-06-14T09:24:18.664Z,17.64
2018-06-14T09:25:18.621Z,17.63
2018-06-14T09:26:18.563Z,17.68
2018-06-14T09:27:18.514Z,17.70
2018-06-14T09:28:18.486Z,17.72
2018-06-14T09:29:18.407Z,17.59
2018-06-14T09:30:18.369Z,17.67
2018-06-14T09:31:18.325Z,17.56
2018-06-14T09:32:18.269Z,17.60
2018-06-14T09:33:18.237Z,17.63
2018-06-14T09:34:18.192Z,17.65
2018-06-14T09:35:18.144Z,17.80
2018-06-14T09:36:18.081Z,17.74
2018-06-14T09:37:18.040Z,17.79
2018-06-14T09:38:18.005Z,17.70
2018-06-14T09:39:17.969Z,17.76
2018-06-14T09:40:17.923Z,17.92
2018-06-14T09:41:17.861Z,17.87
2018-06-14T09:42:17.804Z,17.82
2018-06-14T09:43:17.754Z,17.89
2018-06-14T09:44:17.739Z,17.90
2018-06-14T09:45:17.666Z,17.92
2018-06-14T09:46:17.634Z,17.82
2018-06-14T09:47:17.610Z,17.89
2018-06-14T09:48:17.534Z,17.72
2018-06-14T09:49:17.486Z,17.72
2018-06-14T09:50:17.537Z,17.72
2018-06-14T09:51:17.420Z,17.72
2018-06-14T09:52:17.367Z,17.86
2018-06-14T09:53:17.320Z,17.79
2018-06-14T09:54:17.257Z,17.72
2018-06-14T09:55:17.220Z,17.52
2018-06-14T09:56:17.180Z,17.45
2018-06-14T09:57:17.156Z,17.51
2018-06-14T09:58:17.074Z,17.63
2018-06-14T09:59:17.044Z,17.54
2018-06-14T10:00:17.014Z,17.52
2018-06-14T10:01:16.949Z,17.59
2018-06-14T10:02:16.903Z,17.68
2018-06-14T10:03:16.851Z,17.72
2018-06-14T10:04:16.807Z,17.67
2018-06-14T10:05:16.746Z,17.74
2018-06-14T10:06:16.729Z,17.71
2018-06-14T10:07:16.665Z,17.76
2018-06-14T10:08:16.623Z,17.71
2018-06-14T10:09:16.593Z,17.68
2018-06-14T10:10:16.508Z,17.63
2018-06-14T10:11:16.455Z,17.56
2018-06-14T10:12:16.439Z,17.41
2018-06-14T10:13:16.363Z,17.26
2018-06-14T10:14:16.324Z,17.20
2018-06-14T10:15:16.503Z,17.12
2018-06-14T10:16:16.251Z,17.08
2018-06-14T10:17:16.201Z,17.19
2018-06-14T10:18:16.137Z,17.14
2018-06-14T10:19:16.117Z,17.24
2018-06-14T10:20:16.052Z,17.29
2018-06-14T10:21:16.024Z,17.19
2018-06-14T10:22:15.966Z,17.29
2018-06-14T10:23:15.897Z,17.11
2018-06-14T10:24:15.863Z,17.19
2018-06-14T10:25:15.810Z,17.16
2018-06-14T10:26:15.764Z,17.26
2018-06-14T10:27:15.710Z,17.30
2018-06-14T10:28:15.700Z,17.33
2018-06-14T10:29:15.654Z,17.36
2018-06-14T10:30:15.566Z,17.46
2018-06-14T10:31:15.522Z,17.51
2018-06-14T10:32:15.503Z,17.49
2018-06-14T10:33:15.457Z,17.33
2018-06-14T10:34:15.388Z,17.30
2018-06-14T10:35:15.339Z,17.29
2018-06-14T10:36:15.314Z,17.38
2018-06-14T10:37:15.248Z,17.44
2018-06-14T10:38:15.209Z,17.33
2018-06-14T10:39:15.178Z,17.41
2018-06-14T10:40:15.131Z,17.44
2018-06-14T10:41:15.055Z,17.49
2018-06-14T10:42:15.034Z,17.56
2018-06-14T10:43:15.016Z,17.57
2018-06-14T10:44:14.923Z,17.52
2018-06-14T10:45:14.885Z,17.45
2018-06-14T10:46:14.823Z,17.33
2018-06-14T10:47:14.773Z,17.38
2018-06-14T10:48:14.745Z,17.38
2018-06-14T10:49:14.707Z,17.33
2018-06-14T10:50:14.660Z,17.36
2018-06-14T10:51:14.608Z,17.42
2018-06-14T10:52:14.567Z,17.38
2018-06-14T10:53:14.532Z,17.33
2018-06-14T10:54:14.468Z,17.34
2018-06-14T10:55:14.447Z,17.46
2018-06-14T10:56:14.363Z,17.49
2018-06-14T10:57:14.324Z,17.65
2018-06-14T10:58:14.299Z,17.64
2018-06-14T10:59:14.244Z,17.59
2018-06-14T11:00:14.199Z,17.49
2018-06-14T11:01:14.165Z,17.63
2018-06-14T11:02:14.090Z,17.60
2018-06-14T11:03:14.057Z,17.56
2018-06-14T11:04:13.993Z,17.51
2018-06-14T11:05:13.961Z,17.52
2018-06-14T11:06:13.900Z,17.52
2018-06-14T11:07:13.877Z,17.41
2018-06-14T11:08:13.821Z,17.41
2018-06-14T11:09:13.765Z,17.42
2018-06-14T11:10:13.762Z,17.33
2018-06-14T11:11:13.707Z,17.33
2018-06-14T11:12:13.634Z,17.36
2018-06-14T11:13:13.602Z,17.36
2018-06-14T11:14:13.545Z,17.38
2018-06-14T11:15:13.497Z,17.41
2018-06-14T11:16:13.448Z,17.44
2018-06-14T11:17:13.403Z,17.46
2018-06-14T11:18:13.362Z,17.44
2018-06-14T11:19:13.304Z,17.38
2018-06-14T11:20:13.274Z,17.19
2018-06-14T11:21:13.208Z,17.14
2018-06-14T11:22:13.170Z,17.12
2018-06-14T11:23:13.126Z,17.14
2018-06-14T11:24:13.061Z,17.20
2018-06-14T11:25:13.027Z,17.36
2018-06-14T11:26:12.961Z,17.36
2018-06-14T11:27:12.930Z,17.46
2018-06-14T11:28:12.880Z,17.45
2018-06-14T11:29:12.851Z,17.46
2018-06-14T11:30:12.794Z,17.57
2018-06-14T11:31:12.737Z,17.42
2018-06-14T11:32:12.694Z,17.56
2018-06-14T11:33:12.645Z,17.65
2018-06-14T11:34:12.605Z,17.51
2018-06-14T11:35:12.563Z,17.33
2018-06-14T11:36:12.529Z,17.44
2018-06-14T11:37:12.463Z,17.45
2018-06-14T11:38:12.423Z,17.52
2018-06-14T11:39:12.362Z,17.49
2018-06-14T11:40:12.354Z,17.49
2018-06-14T11:41:12.299Z,17.51
2018-06-14T11:42:12.255Z,17.33
2018-06-14T11:43:12.185Z,17.31
2018-06-14T11:44:12.134Z,17.29
2018-06-14T11:45:12.128Z,17.31
2018-06-14T11:46:12.052Z,17.41
2018-06-14T11:47:11.988Z,17.33
2018-06-14T11:48:11.969Z,17.29
2018-06-14T11:49:11.890Z,17.29
2018-06-14T11:50:11.865Z,17.39
2018-06-14T11:51:11.814Z,17.41
2018-06-14T11:52:11.774Z,17.41
2018-06-14T11:53:11.716Z,17.39
2018-06-14T11:54:11.693Z,17.39
2018-06-14T11:55:11.615Z,17.39
2018-06-14T11:56:11.588Z,17.42
2018-06-14T11:57:11.527Z,17.42
2018-06-14T11:58:11.498Z,17.41
2018-06-14T11:59:11.449Z,17.38
2018-06-14T12:00:11.401Z,17.20
2018-06-14T12:01:11.357Z,17.27
2018-06-14T12:02:11.315Z,17.02
2018-06-14T12:03:11.251Z,17.11
2018-06-14T12:04:11.199Z,17.19
2018-06-14T12:05:11.176Z,17.22
2018-06-14T12:06:11.110Z,17.27
2018-06-14T12:07:11.058Z,17.29
2018-06-14T12:08:11.021Z,17.16
2018-06-14T12:09:10.962Z,17.19
2018-06-14T12:10:10.931Z,17.33
2018-06-14T12:11:10.892Z,17.19
2018-06-14T12:12:10.817Z,17.24
2018-06-14T12:13:10.807Z,17.26
2018-06-14T12:14:10.724Z,17.30
2018-06-14T12:15:10.699Z,17.34
2018-06-14T12:16:10.686Z,17.36
2018-06-14T12:17:10.610Z,17.24
2018-06-14T12:18:10.553Z,17.27
2018-06-14T12:19:10.505Z,17.34
2018-06-14T12:20:10.469Z,17.27
2018-06-14T12:21:10.404Z,17.29
2018-06-14T12:22:10.781Z,17.34
2018-06-14T12:23:10.329Z,17.29
2018-06-14T12:24:10.272Z,17.11
2018-06-14T12:25:10.213Z,17.11
2018-06-14T12:26:10.206Z,17.19
2018-06-14T12:27:10.117Z,17.23
2018-06-14T12:28:10.103Z,17.11
2018-06-14T12:29:10.055Z,17.15
2018-06-14T12:30:10.026Z,16.99
2018-06-14T12:31:09.948Z,17.12
2018-06-14T12:32:10.444Z,17.15
2018-06-14T12:33:09.863Z,17.19
2018-06-14T12:34:09.808Z,17.24
2018-06-14T12:35:09.781Z,17.15
2018-06-14T12:36:09.737Z,17.16
2018-06-14T12:37:09.677Z,17.26
2018-06-14T12:38:09.628Z,17.24
2018-06-14T12:39:09.598Z,17.12
2018-06-14T12:40:10.054Z,17.16
2018-06-14T12:41:09.468Z,17.02
2018-06-14T12:42:09.417Z,17.16
2018-06-14T12:43:09.393Z,17.04
2018-06-14T12:44:09.344Z,17.14
2018-06-14T12:45:09.292Z,17.14
2018-06-14T12:46:09.269Z,17.02
2018-06-14T12:47:09.190Z,17.16
2018-06-14T12:48:09.168Z,17.23
2018-06-14T12:49:09.111Z,17.20
2018-06-14T12:50:09.040Z,17.29
2018-06-14T12:51:09.036Z,17.06
2018-06-14T12:52:08.961Z,17.09